Route Details

Aircraft Information
Group: European Fleet
Types: A30F, A31F, B738
Route Data
Distance: 576nm
Duration: 1h 44m
Origin METAR: ENGM 080050Z 31003KT 270V340 0700 R19R/1000U R01R/0900U R19L/0700N R01L/0900N FZFG VV002 M03/M04 Q1030
Dest. METAR: EDDK 080050Z AUTO VRB01KT CAVOK M03/M07 Q1039 NOSIG
Freight Data
(for Feb 8, 2023)
Load Factor:
46%
Manifested Cargo: 30,627lbs
Financial History
Total Freight: 551,143lbs
Average Load: 0lbs/flt
Fuel Used: 202,826lbs
Avg. Fuel Used: 0lbs/flt
Fuel Expense: $83,576
Avg. Fuel Expense: $0
Avg. Fuel Cost: $0/lbs
Total Gross Income: $1,224,134
Pilot Pay: $2,181
Total Expenses: $222,457
Total Revenue: $912,501
Average Revenue: $0

Capitol Logistics 595




ENGM
Oslo Airport Gardermoen
Oslo, NO
EDDK
Cologne Bonn Airport
Cologne, DE